createdAt,value
2023-03-29T00:01:00.418Z,1.70
2023-03-29T00:04:13.940Z,2.08
2023-03-29T00:07:26.347Z,2.10
2023-03-29T00:10:38.970Z,1.73
2023-03-29T00:13:51.344Z,1.95
2023-03-29T00:17:04.330Z,1.90
2023-03-29T00:20:17.232Z,2.20
2023-03-29T00:23:29.865Z,2.28
2023-03-29T00:26:42.231Z,2.65
2023-03-29T00:29:54.901Z,3.00
2023-03-29T00:33:07.430Z,2.83
2023-03-29T00:36:22.193Z,3.72
2023-03-29T00:39:34.929Z,3.22
2023-03-29T00:42:47.636Z,3.30
2023-03-29T00:46:00.029Z,3.50
2023-03-29T00:49:13.982Z,3.45
2023-03-29T00:52:30.153Z,3.40
2023-03-29T00:55:53.413Z,2.60
2023-03-29T00:59:08.243Z,2.45
2023-03-29T01:02:26.170Z,2.45
2023-03-29T01:05:44.162Z,2.53
2023-03-29T01:08:58.470Z,2.40
2023-03-29T01:12:17.176Z,4.70
2023-03-29T01:15:30.051Z,2.72
2023-03-29T01:18:42.391Z,3.03
2023-03-29T01:22:10.643Z,2.40
2023-03-29T01:26:05.349Z,2.47
2023-03-29T01:29:48.579Z,2.40
2023-03-29T01:33:05.018Z,2.33
2023-03-29T01:36:37.932Z,2.50
2023-03-29T01:39:52.034Z,2.70
2023-03-29T01:43:34.780Z,2.65
2023-03-29T01:46:48.101Z,2.78
2023-03-29T01:50:06.819Z,3.08
2023-03-29T01:53:59.224Z,3.87
2023-03-29T01:57:14.489Z,3.55
2023-03-29T02:00:27.769Z,5.90
2023-03-29T02:03:42.717Z,7.53
2023-03-29T02:06:55.810Z,10.57
2023-03-29T02:10:09.316Z,4.82
2023-03-29T02:13:22.181Z,3.08
2023-03-29T02:16:36.490Z,2.85
2023-03-29T02:20:14.679Z,2.40
2023-03-29T02:26:40.828Z,4.22
2023-03-29T02:29:53.187Z,3.78
2023-03-29T02:33:22.001Z,5.40
2023-03-29T02:36:42.921Z,6.05
2023-03-29T02:39:55.692Z,4.55
2023-03-29T02:43:08.347Z,4.40
2023-03-29T02:46:21.658Z,4.50
2023-03-29T02:49:34.207Z,4.60
2023-03-29T02:52:56.161Z,7.97
2023-03-29T02:56:08.902Z,5.60
2023-03-29T02:59:22.601Z,5.05
2023-03-29T03:02:35.643Z,5.75
2023-03-29T03:05:49.109Z,4.15
2023-03-29T03:09:02.142Z,5.57
2023-03-29T03:12:16.635Z,5.60
2023-03-29T03:15:29.057Z,6.45
2023-03-29T03:18:43.075Z,8.10
2023-03-29T03:21:56.227Z,8.02
2023-03-29T03:25:12.051Z,6.20
2023-03-29T03:28:25.052Z,5.32
2023-03-29T03:31:37.867Z,4.93
2023-03-29T03:34:53.052Z,5.50
2023-03-29T03:38:07.471Z,6.72
2023-03-29T03:41:19.900Z,4.93
2023-03-29T03:44:32.632Z,5.80
2023-03-29T03:47:46.129Z,4.72
2023-03-29T03:50:59.325Z,20.08
2023-03-29T03:54:14.279Z,9.68
2023-03-29T03:57:28.789Z,10.48
2023-03-29T04:00:42.736Z,15.35
2023-03-29T04:03:56.512Z,10.85
2023-03-29T04:07:09.659Z,6.30
2023-03-29T04:10:22.832Z,8.95
2023-03-29T04:13:35.810Z,6.75
2023-03-29T04:16:50.364Z,6.40
2023-03-29T04:20:10.287Z,6.97
2023-03-29T04:23:24.119Z,8.02
2023-03-29T04:26:36.520Z,5.55
2023-03-29T04:29:50.596Z,4.68
2023-03-29T04:33:03.080Z,6.18
2023-03-29T04:36:16.235Z,4.97
2023-03-29T04:39:33.897Z,8.63
2023-03-29T04:42:48.038Z,8.90
2023-03-29T04:46:00.911Z,10.73
2023-03-29T04:49:14.542Z,7.95
2023-03-29T04:52:27.337Z,6.20
2023-03-29T04:55:40.486Z,6.75
2023-03-29T04:58:53.528Z,7.68
2023-03-29T05:02:07.489Z,7.00
2023-03-29T05:05:21.269Z,8.70
2023-03-29T05:08:35.490Z,8.55
2023-03-29T05:11:48.801Z,8.57
2023-03-29T05:15:01.745Z,10.10
2023-03-29T05:18:14.480Z,8.63
2023-03-29T05:21:28.393Z,8.90
2023-03-29T05:24:42.178Z,10.80
2023-03-29T05:27:55.615Z,10.70
2023-03-29T05:31:08.496Z,9.57
2023-03-29T05:34:21.724Z,9.23
2023-03-29T05:37:35.505Z,9.27
2023-03-29T05:40:48.377Z,11.30
2023-03-29T05:44:01.606Z,12.60
2023-03-29T05:47:14.384Z,17.00
2023-03-29T05:50:26.730Z,18.23
2023-03-29T05:53:40.016Z,19.83
2023-03-29T05:56:52.579Z,18.50
2023-03-29T06:00:24.153Z,16.40
2023-03-29T06:03:38.640Z,14.30
2023-03-29T06:06:53.295Z,11.88
2023-03-29T06:10:09.685Z,8.85
2023-03-29T06:13:23.400Z,8.85
2023-03-29T06:16:36.505Z,8.52
2023-03-29T06:19:48.980Z,7.12
2023-03-29T06:23:02.601Z,6.78
2023-03-29T06:26:15.028Z,6.28
2023-03-29T06:29:27.954Z,5.78
2023-03-29T06:32:41.812Z,4.82
2023-03-29T06:35:55.877Z,4.07
2023-03-29T06:39:09.958Z,3.70
2023-03-29T06:42:24.463Z,3.47
2023-03-29T06:45:42.721Z,3.95
2023-03-29T06:48:57.005Z,3.65
2023-03-29T06:52:12.365Z,3.37
2023-03-29T06:55:26.118Z,3.35
2023-03-29T06:58:39.339Z,4.28
2023-03-29T07:01:55.701Z,3.47
2023-03-29T07:05:13.605Z,3.65
2023-03-29T07:08:31.448Z,3.75
2023-03-29T07:11:44.655Z,3.78
2023-03-29T07:14:57.328Z,3.40
2023-03-29T07:18:12.727Z,3.50
2023-03-29T07:21:25.454Z,3.78
2023-03-29T07:24:38.138Z,3.65
2023-03-29T07:27:52.080Z,3.50
2023-03-29T07:31:06.903Z,3.60
2023-03-29T07:34:20.692Z,3.35
2023-03-29T07:37:35.140Z,3.80
2023-03-29T07:40:48.114Z,3.55
2023-03-29T07:44:08.985Z,3.58
2023-03-29T07:47:23.719Z,3.20
2023-03-29T07:50:37.648Z,5.50
2023-03-29T07:53:50.672Z,4.07
2023-03-29T07:57:06.915Z,4.35
2023-03-29T08:00:20.819Z,4.28
2023-03-29T08:03:35.175Z,4.43
2023-03-29T08:06:48.992Z,4.18
2023-03-29T08:10:03.239Z,4.00
2023-03-29T08:13:16.318Z,3.28
2023-03-29T08:16:29.882Z,4.07
2023-03-29T08:19:51.413Z,3.45
2023-03-29T08:23:06.452Z,4.28
2023-03-29T08:26:19.639Z,3.50
2023-03-29T08:29:32.607Z,2.97
2023-03-29T08:32:46.902Z,3.12
2023-03-29T08:36:02.073Z,3.35
2023-03-29T08:39:15.805Z,3.33
2023-03-29T08:43:06.190Z,4.87
2023-03-29T08:46:21.774Z,3.35
2023-03-29T08:49:36.648Z,3.40
2023-03-29T08:52:57.427Z,3.30
2023-03-29T08:56:15.958Z,3.30
2023-03-29T08:59:31.193Z,3.30
2023-03-29T09:02:44.339Z,3.20
2023-03-29T09:06:04.458Z,2.70
2023-03-29T09:09:19.287Z,3.20
2023-03-29T09:12:36.696Z,2.85
2023-03-29T09:16:35.257Z,2.85
2023-03-29T09:20:06.414Z,2.80
2023-03-29T09:23:25.438Z,3.30
2023-03-29T09:26:59.555Z,2.90
2023-03-29T09:30:14.560Z,2.78
2023-03-29T09:33:37.374Z,2.92
2023-03-29T09:36:56.631Z,2.80
2023-03-29T09:40:17.908Z,3.00
2023-03-29T09:43:38.425Z,2.90
2023-03-29T09:47:01.342Z,2.72
2023-03-29T09:50:30.996Z,2.70
2023-03-29T09:53:44.737Z,3.00
2023-03-29T09:56:59.635Z,2.50
2023-03-29T10:00:13.877Z,2.40
2023-03-29T10:03:31.227Z,2.60
2023-03-29T10:06:51.351Z,2.40
2023-03-29T10:10:07.960Z,2.70
2023-03-29T10:13:23.273Z,2.40
2023-03-29T10:16:40.562Z,2.55
2023-03-29T10:19:57.258Z,2.60
2023-03-29T10:23:17.748Z,2.45
2023-03-29T10:26:32.582Z,2.30
2023-03-29T10:29:45.306Z,2.25
2023-03-29T10:32:58.932Z,2.50
2023-03-29T10:36:12.075Z,2.42
2023-03-29T10:39:24.483Z,2.90
2023-03-29T10:42:37.857Z,3.08
2023-03-29T10:45:52.533Z,3.40
2023-03-29T10:49:10.297Z,2.80
2023-03-29T10:52:23.114Z,2.30
2023-03-29T10:55:39.211Z,2.15
2023-03-29T10:59:10.185Z,2.50
2023-03-29T11:02:48.849Z,2.60
2023-03-29T11:06:38.562Z,2.15
2023-03-29T11:10:19.254Z,2.35
2023-03-29T11:14:00.055Z,2.40
2023-03-29T11:17:34.274Z,2.47
2023-03-29T11:21:22.077Z,3.00
2023-03-29T11:24:43.742Z,5.15
2023-03-29T11:28:26.336Z,3.78
2023-03-29T11:31:58.630Z,4.05
2023-03-29T11:35:29.568Z,4.55
2023-03-29T11:38:48.204Z,3.72
2023-03-29T11:42:07.817Z,2.90
2023-03-29T11:45:48.400Z,2.50
2023-03-29T11:49:05.470Z,2.70
2023-03-29T11:52:33.772Z,3.22
2023-03-29T11:55:46.128Z,2.50
2023-03-29T11:59:03.031Z,4.30
2023-03-29T12:02:21.698Z,5.18
2023-03-29T12:05:59.977Z,3.12
2023-03-29T12:09:35.462Z,3.03
2023-03-29T12:12:53.101Z,3.15
2023-03-29T12:16:26.583Z,2.85
2023-03-29T12:19:49.034Z,4.50
2023-03-29T12:23:01.772Z,4.22
2023-03-29T12:26:44.888Z,2.75
2023-03-29T12:30:04.778Z,2.80
2023-03-29T12:33:23.363Z,3.12
2023-03-29T12:37:01.971Z,2.70
2023-03-29T12:40:18.806Z,3.28
2023-03-29T12:43:39.108Z,4.35
2023-03-29T12:46:57.254Z,2.83
2023-03-29T12:50:46.050Z,3.03
2023-03-29T12:54:08.587Z,4.40
2023-03-29T12:57:26.421Z,3.42
2023-03-29T13:00:42.654Z,4.25
2023-03-29T13:04:01.429Z,3.90
2023-03-29T13:07:23.183Z,3.83
2023-03-29T13:10:41.178Z,3.42
2023-03-29T13:13:53.760Z,3.75
2023-03-29T13:17:18.109Z,3.45
2023-03-29T13:20:57.168Z,2.80
2023-03-29T13:24:21.704Z,3.28
2023-03-29T13:28:27.922Z,3.37
2023-03-29T13:31:58.910Z,4.40
2023-03-29T13:35:18.210Z,4.03
2023-03-29T13:38:32.108Z,3.80
2023-03-29T13:41:49.447Z,3.60
2023-03-29T13:45:15.978Z,3.83
2023-03-29T13:48:33.713Z,2.60
2023-03-29T13:52:16.054Z,3.33
2023-03-29T13:55:33.679Z,3.15
2023-03-29T13:58:54.592Z,3.58
2023-03-29T14:02:07.537Z,3.87
2023-03-29T14:05:23.606Z,3.40
2023-03-29T14:08:41.103Z,4.50
2023-03-29T14:11:53.804Z,3.12
2023-03-29T14:15:06.969Z,3.50
2023-03-29T14:18:21.801Z,3.60
2023-03-29T14:21:34.170Z,3.08
2023-03-29T14:24:49.325Z,3.35
2023-03-29T14:28:01.704Z,4.12
2023-03-29T14:31:25.286Z,3.83
2023-03-29T14:34:37.960Z,3.22
2023-03-29T14:37:51.537Z,3.30
2023-03-29T14:41:03.985Z,5.20
2023-03-29T14:44:16.672Z,4.45
2023-03-29T14:47:30.772Z,3.20
2023-03-29T14:50:43.422Z,3.10
2023-03-29T14:53:57.199Z,3.78
2023-03-29T14:57:14.511Z,3.67
2023-03-29T15:00:42.503Z,3.45
2023-03-29T15:03:56.599Z,5.22
2023-03-29T15:07:09.766Z,4.15
2023-03-29T15:10:22.469Z,3.80
2023-03-29T15:13:34.873Z,3.62
2023-03-29T15:16:48.316Z,4.25
2023-03-29T15:20:11.029Z,4.43
2023-03-29T15:23:24.966Z,3.70
2023-03-29T15:26:37.792Z,3.97
2023-03-29T15:29:50.402Z,3.20
2023-03-29T15:33:32.798Z,3.75
2023-03-29T15:36:45.521Z,3.80
2023-03-29T15:39:57.916Z,3.35
2023-03-29T15:43:11.188Z,3.58
2023-03-29T15:46:23.557Z,3.45
2023-03-29T15:49:36.373Z,3.70
2023-03-29T15:52:48.676Z,3.30
2023-03-29T15:56:02.159Z,3.33
2023-03-29T15:59:14.945Z,3.50
2023-03-29T16:02:27.997Z,4.37
2023-03-29T16:05:41.842Z,3.20
2023-03-29T16:08:55.541Z,3.78
2023-03-29T16:12:10.417Z,3.47
2023-03-29T16:15:22.859Z,3.12
2023-03-29T16:18:35.817Z,3.72
2023-03-29T16:21:48.437Z,4.50
2023-03-29T16:25:01.086Z,4.20
2023-03-29T16:28:13.455Z,3.50
2023-03-29T16:31:27.194Z,3.78
2023-03-29T16:34:41.522Z,3.60
2023-03-29T16:37:54.187Z,3.90
2023-03-29T16:41:07.544Z,3.80
2023-03-29T16:44:23.795Z,4.12
2023-03-29T16:47:36.698Z,3.35
2023-03-29T16:50:49.573Z,3.67
2023-03-29T16:54:02.011Z,3.90
2023-03-29T16:57:14.615Z,5.37
2023-03-29T17:00:27.102Z,4.80
2023-03-29T17:03:39.838Z,4.50
2023-03-29T17:06:52.200Z,3.12
2023-03-29T17:10:06.855Z,3.20
2023-03-29T17:13:20.622Z,3.08
2023-03-29T17:16:33.285Z,4.20
2023-03-29T17:19:45.833Z,2.85
2023-03-29T17:22:58.523Z,2.72
2023-03-29T17:26:11.949Z,3.12
2023-03-29T17:29:24.602Z,2.67
2023-03-29T17:32:37.110Z,3.17
2023-03-29T17:35:49.787Z,3.05
2023-03-29T17:39:02.924Z,3.28
2023-03-29T17:42:17.230Z,3.33
2023-03-29T17:45:29.668Z,2.97
2023-03-29T17:48:42.235Z,2.90
2023-03-29T17:51:54.592Z,3.97
2023-03-29T17:55:13.615Z,5.37
2023-03-29T17:58:26.324Z,4.55
2023-03-29T18:01:39.535Z,3.95
2023-03-29T18:04:52.254Z,3.65
2023-03-29T18:08:04.591Z,4.60
2023-03-29T18:11:22.975Z,4.43
2023-03-29T18:14:35.655Z,4.95
2023-03-29T18:17:48.280Z,4.95
2023-03-29T18:21:00.844Z,5.75
2023-03-29T18:24:13.496Z,7.95
2023-03-29T18:27:26.306Z,6.75
2023-03-29T18:30:38.894Z,6.93
2023-03-29T18:33:51.240Z,4.60
2023-03-29T18:37:04.159Z,4.75
2023-03-29T18:40:20.288Z,6.20
2023-03-29T18:43:33.966Z,5.57
2023-03-29T18:46:46.319Z,6.37
2023-03-29T18:49:59.008Z,8.10
2023-03-29T18:53:11.364Z,6.57
2023-03-29T18:56:24.008Z,6.10
2023-03-29T18:59:36.627Z,6.30
2023-03-29T19:02:49.357Z,5.97
2023-03-29T19:06:02.262Z,7.68
2023-03-29T19:09:15.304Z,8.25
2023-03-29T19:12:28.232Z,9.15
2023-03-29T19:15:41.173Z,8.00
2023-03-29T19:18:53.663Z,8.77
2023-03-29T19:22:06.515Z,7.57
2023-03-29T19:25:19.073Z,6.07
2023-03-29T19:28:32.718Z,7.37
2023-03-29T19:31:45.403Z,7.57
2023-03-29T19:34:58.442Z,7.55
2023-03-29T19:38:11.178Z,6.65
2023-03-29T19:41:23.827Z,9.20
2023-03-29T19:44:38.224Z,8.02
2023-03-29T19:47:55.485Z,6.30
2023-03-29T19:51:08.077Z,5.90
2023-03-29T19:54:22.095Z,5.82
2023-03-29T19:57:34.549Z,5.40
2023-03-29T20:00:47.232Z,4.57
2023-03-29T20:03:59.880Z,5.03
2023-03-29T20:07:12.351Z,4.55
2023-03-29T20:10:24.951Z,5.47
2023-03-29T20:13:39.225Z,5.20
2023-03-29T20:16:52.774Z,4.82
2023-03-29T20:20:09.135Z,6.47
2023-03-29T20:23:21.775Z,7.12
2023-03-29T20:26:34.161Z,7.60
2023-03-29T20:29:46.751Z,9.77
2023-03-29T20:32:59.221Z,16.17
2023-03-29T20:36:13.416Z,7.97
2023-03-29T20:39:26.097Z,4.97
2023-03-29T20:42:38.828Z,4.45
2023-03-29T20:45:53.957Z,4.10
2023-03-29T20:49:10.272Z,4.30
2023-03-29T20:52:23.014Z,4.28
2023-03-29T20:55:38.127Z,4.25
2023-03-29T20:58:50.477Z,6.40
2023-03-29T21:02:03.115Z,5.07
2023-03-29T21:05:15.775Z,6.62
2023-03-29T21:08:29.781Z,6.10
2023-03-29T21:11:42.318Z,5.47
2023-03-29T21:14:55.281Z,4.78
2023-03-29T21:18:07.885Z,4.70
2023-03-29T21:21:22.720Z,4.55
2023-03-29T21:24:36.495Z,4.05
2023-03-29T21:27:49.287Z,4.43
2023-03-29T21:31:05.897Z,4.43
2023-03-29T21:34:18.814Z,4.18
2023-03-29T21:37:31.228Z,3.95
2023-03-29T21:40:43.810Z,5.30
2023-03-29T21:43:56.460Z,8.52
2023-03-29T21:47:09.095Z,8.07
2023-03-29T21:50:21.652Z,7.03
2023-03-29T21:53:34.587Z,6.57
2023-03-29T21:56:47.783Z,6.15
2023-03-29T22:00:00.401Z,6.25
2023-03-29T22:03:13.067Z,6.30
2023-03-29T22:06:25.743Z,5.78
2023-03-29T22:09:41.329Z,6.25
2023-03-29T22:12:53.924Z,6.50
2023-03-29T22:16:06.748Z,6.60
2023-03-29T22:19:19.360Z,6.57
2023-03-29T22:22:31.722Z,6.97
2023-03-29T22:25:44.373Z,6.07
2023-03-29T22:28:56.900Z,5.80
2023-03-29T22:32:09.584Z,5.45
2023-03-29T22:35:22.009Z,4.72
2023-03-29T22:38:34.620Z,4.78
2023-03-29T22:41:47.048Z,5.90
2023-03-29T22:44:59.653Z,5.95
2023-03-29T22:48:12.206Z,5.85
2023-03-29T22:51:24.819Z,6.28
2023-03-29T22:54:37.198Z,6.30
2023-03-29T22:57:49.835Z,7.05
2023-03-29T23:01:03.018Z,6.85
2023-03-29T23:04:16.026Z,6.82
2023-03-29T23:07:28.429Z,8.55
2023-03-29T23:10:41.356Z,7.37
2023-03-29T23:13:54.039Z,5.87
2023-03-29T23:17:07.679Z,5.62
2023-03-29T23:20:21.069Z,5.30
2023-03-29T23:23:33.868Z,4.65
2023-03-29T23:26:49.033Z,5.00
2023-03-29T23:30:01.711Z,4.95
2023-03-29T23:33:14.506Z,5.32
2023-03-29T23:36:31.154Z,5.22
2023-03-29T23:39:43.483Z,5.60
2023-03-29T23:42:59.618Z,6.00
2023-03-29T23:46:15.236Z,6.57
2023-03-29T23:49:28.208Z,7.28
2023-03-29T23:52:41.150Z,7.35
2023-03-29T23:55:56.242Z,6.62
2023-03-29T23:59:08.837Z,6.70
